Aérodrome :
LOGIN :

S'inscrire | Disclaimer

   EN    FR    IT 

 










Légende :    VFR   VFR Marginal   IFR   IFR Intensif   IFR Très Intensif
Visi : 
Plafond : 
>= 8 km
>= 3000ft
5 à 8 km
1000 à 3000 ft
1500m à 5 km
500 à 1000 ft
800 à 1500m
200 à 500 ft
< 800m
< 200 ft
Symboles :   Orages  Brouillard  Fortes neiges  Fortes précipitations  Vent > 20 kt
SIGMETs :   Divers  Orages  Givrage  Turbulence  Onde Orograph.  Cendres Volcan.






- Altitude de l'aérodrome : 49 ft
- Code IATA : GLZ


EHGR - Gilze-Rijen Airbase

DERNIER METAR :
  • 090900Z AUTO 19010KT 150V230 9999 FEW009 BKN010 OVC032 03/02 Q1003 GRN TEMPO SCT010 BKN020

METARs EXPIRÉS :
  • 090857Z AUTO 19011KT 150V230 9999 FEW010 OVC032 03/01 Q1003 BLU TEMPO SCT010 BKN020
  • 090839Z AUTO 19011KT 140V230 9999 FEW010 SCT013 OVC029 03/01 Q1003 GRN TEMPO SCT010 BKN020
  • 090825Z AUTO 19010KT 160V240 9999 FEW010 OVC031 03/01 Q1002 BLU TEMPO SCT010 BKN020
  • 090755Z AUTO 20007KT 160V240 9999 SCT011 BKN034 02/01 Q1002 GRN TEMPO SCT010 BKN020
  • 090743Z AUTO 20007KT 130V230 9999 SCT010 BKN075 02/01 Q1002 GRN
  • 090725Z AUTO 18010KT 140V210 9999 BKN066 OVC071 02/01 Q1002 BLU
  • 090703Z AUTO 19011KT 140V220 9999 FEW023 SCT027 BKN033 02/00 Q1002 BLU
  • 090655Z AUTO 19009KT 150V230 9999 BKN022 BKN026 BKN097 02/00 Q1002 WHT
  • 090644Z AUTO 20009KT 150V240 9999 FEW023 BKN026 BKN043 02/00 Q1002 BLU
  • 090633Z AUTO 20008KT 150V230 9999 SCT022 02/00 Q1002 WHT
  • 090625Z AUTO 20008KT 140V240 9999 FEW083 02/00 Q1002 BLU

TAF COR TAF EHGR
Valide du 09 à 06h jusqu'au 09 à 18h UTC


090609Z 0906/0918 18008KT 9999 FEW040
BECMG 0906/0909 21010KT SCT012 BKN025
TEMPO 0908/0916 4500 -RA SCT007 BKN010
BECMG 0915/0918 22006KT FEW015 BKN025



MET'MAP, la Météo Aéronautique d'un coup d'oeil ! - Copyright ORBIFLY Décembre 2007 - Disclaimer

ORBIFLY MET'MAP TEAM :

Programmation & Développement : Alexandra Zaïnal
Sur une idée originale de : Baudouin d'Aumeries
Assistance à la programmation : Marc-Olivier Méhu
Soutien technique & logistique : Manuel Goepfert

Contact : metmap@orbifly.com




SOURCES & CREDITS :

   NOAA